sensor_id;sensor_type;location;lat;lon;timestamp;temperature;humidity
22321;DHT22;11328;53.928;18.522;2022-08-01T00:00:16;13.70;99.90
22321;DHT22;11328;53.928;18.522;2022-08-01T00:02:43;13.60;99.90
22321;DHT22;11328;53.928;18.522;2022-08-01T00:05:11;13.70;99.90
22321;DHT22;11328;53.928;18.522;2022-08-01T00:07:38;13.70;99.90
22321;DHT22;11328;53.928;18.522;2022-08-01T00:10:12;13.70;99.90
22321;DHT22;11328;53.928;18.522;2022-08-01T00:12:41;13.80;99.90
22321;DHT22;11328;53.928;18.522;2022-08-01T00:15:13;13.80;99.90
22321;DHT22;11328;53.928;18.522;2022-08-01T00:17:42;13.80;99.90
22321;DHT22;11328;53.928;18.522;2022-08-01T00:20:12;13.80;99.90
22321;DHT22;11328;53.928;18.522;2022-08-01T00:22:40;13.80;99.90
22321;DHT22;11328;53.928;18.522;2022-08-01T00:25:07;13.80;99.90
22321;DHT22;11328;53.928;18.522;2022-08-01T00:27:35;13.80;99.90
22321;DHT22;11328;53.928;18.522;2022-08-01T00:30:04;13.70;99.90
22321;DHT22;11328;53.928;18.522;2022-08-01T00:32:40;13.80;99.90
22321;DHT22;11328;53.928;18.522;2022-08-01T00:35:09;13.80;99.90
22321;DHT22;11328;53.928;18.522;2022-08-01T00:37:36;13.70;99.90
22321;DHT22;11328;53.928;18.522;2022-08-01T00:40:04;13.60;99.90
22321;DHT22;11328;53.928;18.522;2022-08-01T00:42:32;13.50;99.90
22321;DHT22;11328;53.928;18.522;2022-08-01T00:44:59;13.40;99.90
22321;DHT22;11328;53.928;18.522;2022-08-01T00:47:26;13.50;99.90
22321;DHT22;11328;53.928;18.522;2022-08-01T00:49:53;13.50;99.90
22321;DHT22;11328;53.928;18.522;2022-08-01T00:52:20;13.50;99.90
22321;DHT22;11328;53.928;18.522;2022-08-01T00:54:48;13.50;99.90
22321;DHT22;11328;53.928;18.522;2022-08-01T00:57:15;13.50;99.90
22321;DHT22;11328;53.928;18.522;2022-08-01T01:00:04;13.50;99.90
22321;DHT22;11328;53.928;18.522;2022-08-01T01:02:33;13.50;99.90
22321;DHT22;11328;53.928;18.522;2022-08-01T01:05:01;13.50;99.90
22321;DHT22;11328;53.928;18.522;2022-08-01T01:10:32;13.40;99.90
22321;DHT22;11328;53.928;18.522;2022-08-01T01:16:18;13.40;99.90
22321;DHT22;11328;53.928;18.522;2022-08-01T01:18:51;13.40;99.90
22321;DHT22;11328;53.928;18.522;2022-08-01T01:24:11;13.40;99.90
22321;DHT22;11328;53.928;18.522;2022-08-01T01:27:45;13.40;99.90
22321;DHT22;11328;53.928;18.522;2022-08-01T01:30:00;13.40;99.90
22321;DHT22;11328;53.928;18.522;2022-08-01T01:32:33;13.40;99.90
22321;DHT22;11328;53.928;18.522;2022-08-01T01:35:25;13.30;99.90
22321;DHT22;11328;53.928;18.522;2022-08-01T01:38:00;13.30;99.90
22321;DHT22;11328;53.928;18.522;2022-08-01T01:40:31;13.30;99.90
22321;DHT22;11328;53.928;18.522;2022-08-01T01:43:00;13.40;99.90
22321;DHT22;11328;53.928;18.522;2022-08-01T01:45:28;13.30;99.90
22321;DHT22;11328;53.928;18.522;2022-08-01T01:47:57;13.40;99.90
22321;DHT22;11328;53.928;18.522;2022-08-01T01:50:27;13.30;99.90
22321;DHT22;11328;53.928;18.522;2022-08-01T01:52:56;13.30;99.90
22321;DHT22;11328;53.928;18.522;2022-08-01T01:55:25;13.30;99.90
22321;DHT22;11328;53.928;18.522;2022-08-01T01:57:54;13.40;99.90
22321;DHT22;11328;53.928;18.522;2022-08-01T02:00:23;13.40;99.90
22321;DHT22;11328;53.928;18.522;2022-08-01T02:02:54;13.40;99.90
22321;DHT22;11328;53.928;18.522;2022-08-01T02:05:24;13.30;99.90
22321;DHT22;11328;53.928;18.522;2022-08-01T02:07:53;13.30;99.90
22321;DHT22;11328;53.928;18.522;2022-08-01T02:10:25;13.30;99.90
22321;DHT22;11328;53.928;18.522;2022-08-01T02:12:55;13.30;99.90
22321;DHT22;11328;53.928;18.522;2022-08-01T02:15:25;13.20;99.90
22321;DHT22;11328;53.928;18.522;2022-08-01T02:17:56;13.20;99.90
22321;DHT22;11328;53.928;18.522;2022-08-01T02:20:27;13.20;99.90
22321;DHT22;11328;53.928;18.522;2022-08-01T02:23:01;13.20;99.90
22321;DHT22;11328;53.928;18.522;2022-08-01T02:25:47;13.10;99.90
22321;DHT22;11328;53.928;18.522;2022-08-01T02:28:43;13.00;99.90
22321;DHT22;11328;53.928;18.522;2022-08-01T02:31:20;13.00;99.90
22321;DHT22;11328;53.928;18.522;2022-08-01T02:34:02;13.00;99.90
22321;DHT22;11328;53.928;18.522;2022-08-01T02:36:36;12.90;99.90
22321;DHT22;11328;53.928;18.522;2022-08-01T02:39:13;12.90;99.90
22321;DHT22;11328;53.928;18.522;2022-08-01T02:41:47;12.90;99.90
22321;DHT22;11328;53.928;18.522;2022-08-01T02:44:24;12.90;99.90
22321;DHT22;11328;53.928;18.522;2022-08-01T02:47:00;12.80;99.90
22321;DHT22;11328;53.928;18.522;2022-08-01T02:49:37;12.90;99.90
22321;DHT22;11328;53.928;18.522;2022-08-01T02:52:20;12.80;99.90
22321;DHT22;11328;53.928;18.522;2022-08-01T02:54:51;12.90;99.90
22321;DHT22;11328;53.928;18.522;2022-08-01T02:57:21;12.90;99.90
22321;DHT22;11328;53.928;18.522;2022-08-01T03:00:11;12.90;99.90
22321;DHT22;11328;53.928;18.522;2022-08-01T03:02:39;13.00;99.90
22321;DHT22;11328;53.928;18.522;2022-08-01T03:05:11;12.90;99.90
22321;DHT22;11328;53.928;18.522;2022-08-01T03:07:39;12.90;99.90
22321;DHT22;11328;53.928;18.522;2022-08-01T03:10:08;12.90;99.90
22321;DHT22;11328;53.928;18.522;2022-08-01T03:12:37;12.90;99.90
22321;DHT22;11328;53.928;18.522;2022-08-01T03:15:07;12.90;99.90
22321;DHT22;11328;53.928;18.522;2022-08-01T03:17:37;12.90;99.90
22321;DHT22;11328;53.928;18.522;2022-08-01T03:20:10;12.90;99.90
22321;DHT22;11328;53.928;18.522;2022-08-01T03:22:43;13.00;99.90
22321;DHT22;11328;53.928;18.522;2022-08-01T03:25:13;13.10;99.90
22321;DHT22;11328;53.928;18.522;2022-08-01T03:27:50;13.20;99.90
22321;DHT22;11328;53.928;18.522;2022-08-01T03:30:23;13.20;99.90
22321;DHT22;11328;53.928;18.522;2022-08-01T03:32:51;13.20;99.90
22321;DHT22;11328;53.928;18.522;2022-08-01T03:35:19;13.20;99.90
22321;DHT22;11328;53.928;18.522;2022-08-01T03:37:52;13.20;99.90
22321;DHT22;11328;53.928;18.522;2022-08-01T03:41:09;13.20;99.90
22321;DHT22;11328;53.928;18.522;2022-08-01T03:43:38;13.20;99.90
22321;DHT22;11328;53.928;18.522;2022-08-01T03:46:19;13.30;99.90
22321;DHT22;11328;53.928;18.522;2022-08-01T03:48:52;13.30;99.90
22321;DHT22;11328;53.928;18.522;2022-08-01T03:51:23;13.30;99.90
22321;DHT22;11328;53.928;18.522;2022-08-01T03:53:51;13.30;99.90
22321;DHT22;11328;53.928;18.522;2022-08-01T03:56:22;13.50;99.90
22321;DHT22;11328;53.928;18.522;2022-08-01T03:58:51;13.60;99.90
22321;DHT22;11328;53.928;18.522;2022-08-01T04:01:18;13.70;99.90
22321;DHT22;11328;53.928;18.522;2022-08-01T04:03:46;13.80;99.90
22321;DHT22;11328;53.928;18.522;2022-08-01T04:06:13;13.90;99.90
22321;DHT22;11328;53.928;18.522;2022-08-01T04:08:41;13.90;99.90
22321;DHT22;11328;53.928;18.522;2022-08-01T04:11:10;14.10;99.90
22321;DHT22;11328;53.928;18.522;2022-08-01T04:13:37;14.10;99.90
22321;DHT22;11328;53.928;18.522;2022-08-01T04:16:05;14.20;99.90
22321;DHT22;11328;53.928;18.522;2022-08-01T04:18:32;14.40;99.90
22321;DHT22;11328;53.928;18.522;2022-08-01T04:20:59;14.50;99.90
22321;DHT22;11328;53.928;18.522;2022-08-01T04:23:27;14.60;99.90
22321;DHT22;11328;53.928;18.522;2022-08-01T04:25:59;14.80;99.90
22321;DHT22;11328;53.928;18.522;2022-08-01T04:28:32;14.80;99.90
22321;DHT22;11328;53.928;18.522;2022-08-01T04:31:03;14.90;99.90
22321;DHT22;11328;53.928;18.522;2022-08-01T04:33:40;14.90;99.90
22321;DHT22;11328;53.928;18.522;2022-08-01T04:36:10;15.00;99.90
22321;DHT22;11328;53.928;18.522;2022-08-01T04:38:44;15.20;99.90
22321;DHT22;11328;53.928;18.522;2022-08-01T04:41:12;15.30;99.90
22321;DHT22;11328;53.928;18.522;2022-08-01T04:43:41;15.40;99.90
22321;DHT22;11328;53.928;18.522;2022-08-01T04:46:10;15.60;99.90
22321;DHT22;11328;53.928;18.522;2022-08-01T04:48:39;15.70;99.90
22321;DHT22;11328;53.928;18.522;2022-08-01T04:51:16;15.90;99.90
22321;DHT22;11328;53.928;18.522;2022-08-01T04:53:45;16.00;99.90
22321;DHT22;11328;53.928;18.522;2022-08-01T04:56:15;16.10;99.90
22321;DHT22;11328;53.928;18.522;2022-08-01T04:58:42;16.10;99.90
22321;DHT22;11328;53.928;18.522;2022-08-01T05:01:10;16.20;99.90
22321;DHT22;11328;53.928;18.522;2022-08-01T05:03:38;16.40;99.90
22321;DHT22;11328;53.928;18.522;2022-08-01T05:06:05;16.50;99.90
22321;DHT22;11328;53.928;18.522;2022-08-01T05:08:32;16.70;99.90
22321;DHT22;11328;53.928;18.522;2022-08-01T05:10:59;16.80;99.90
22321;DHT22;11328;53.928;18.522;2022-08-01T05:13:27;16.80;99.90
22321;DHT22;11328;53.928;18.522;2022-08-01T05:15:54;16.90;99.90
22321;DHT22;11328;53.928;18.522;2022-08-01T05:18:22;17.00;99.90
22321;DHT22;11328;53.928;18.522;2022-08-01T05:20:54;17.20;99.90
22321;DHT22;11328;53.928;18.522;2022-08-01T05:23:21;17.30;99.90
22321;DHT22;11328;53.928;18.522;2022-08-01T05:26:10;17.50;99.90
22321;DHT22;11328;53.928;18.522;2022-08-01T05:28:41;17.60;99.90
22321;DHT22;11328;53.928;18.522;2022-08-01T05:31:08;17.70;99.90
22321;DHT22;11328;53.928;18.522;2022-08-01T05:33:36;17.80;99.90
22321;DHT22;11328;53.928;18.522;2022-08-01T05:36:05;17.90;99.90
22321;DHT22;11328;53.928;18.522;2022-08-01T05:38:32;17.90;99.90
22321;DHT22;11328;53.928;18.522;2022-08-01T05:41:01;17.90;99.90
22321;DHT22;11328;53.928;18.522;2022-08-01T05:43:28;18.00;99.90
22321;DHT22;11328;53.928;18.522;2022-08-01T05:45:55;18.20;99.90
22321;DHT22;11328;53.928;18.522;2022-08-01T05:48:23;18.10;99.90
22321;DHT22;11328;53.928;18.522;2022-08-01T05:50:50;18.10;99.90
22321;DHT22;11328;53.928;18.522;2022-08-01T05:53:24;18.10;99.90
22321;DHT22;11328;53.928;18.522;2022-08-01T05:55:51;18.10;99.90
22321;DHT22;11328;53.928;18.522;2022-08-01T05:58:18;18.10;99.90
22321;DHT22;11328;53.928;18.522;2022-08-01T06:00:45;18.00;99.90
22321;DHT22;11328;53.928;18.522;2022-08-01T06:03:12;18.10;99.90
22321;DHT22;11328;53.928;18.522;2022-08-01T06:05:40;18.20;99.90
22321;DHT22;11328;53.928;18.522;2022-08-01T06:08:08;18.40;99.90
22321;DHT22;11328;53.928;18.522;2022-08-01T06:10:35;18.50;99.90
22321;DHT22;11328;53.928;18.522;2022-08-01T06:13:02;18.60;99.90
22321;DHT22;11328;53.928;18.522;2022-08-01T06:15:30;18.70;99.90
22321;DHT22;11328;53.928;18.522;2022-08-01T06:17:58;18.80;99.90
22321;DHT22;11328;53.928;18.522;2022-08-01T06:20:26;19.00;99.90
22321;DHT22;11328;53.928;18.522;2022-08-01T06:22:53;19.00;99.90
22321;DHT22;11328;53.928;18.522;2022-08-01T06:25:22;19.00;99.90
22321;DHT22;11328;53.928;18.522;2022-08-01T06:27:49;19.20;99.90
22321;DHT22;11328;53.928;18.522;2022-08-01T06:30:16;19.30;99.90
22321;DHT22;11328;53.928;18.522;2022-08-01T06:32:43;19.60;99.90
22321;DHT22;11328;53.928;18.522;2022-08-01T06:35:10;19.70;99.90
22321;DHT22;11328;53.928;18.522;2022-08-01T06:37:37;19.60;99.90
22321;DHT22;11328;53.928;18.522;2022-08-01T06:40:06;19.70;99.90
22321;DHT22;11328;53.928;18.522;2022-08-01T06:42:41;19.90;99.90
22321;DHT22;11328;53.928;18.522;2022-08-01T06:45:10;20.10;99.90
22321;DHT22;11328;53.928;18.522;2022-08-01T06:47:39;20.10;99.90
22321;DHT22;11328;53.928;18.522;2022-08-01T06:50:08;20.40;99.90
22321;DHT22;11328;53.928;18.522;2022-08-01T06:52:37;20.70;99.90
22321;DHT22;11328;53.928;18.522;2022-08-01T06:55:05;20.70;99.90
22321;DHT22;11328;53.928;18.522;2022-08-01T06:57:32;20.90;99.90
22321;DHT22;11328;53.928;18.522;2022-08-01T07:00:06;21.10;99.90
22321;DHT22;11328;53.928;18.522;2022-08-01T07:02:35;21.60;99.90
22321;DHT22;11328;53.928;18.522;2022-08-01T07:05:03;22.00;99.90
22321;DHT22;11328;53.928;18.522;2022-08-01T07:07:31;22.20;99.90
22321;DHT22;11328;53.928;18.522;2022-08-01T07:09:58;22.30;99.90
22321;DHT22;11328;53.928;18.522;2022-08-01T07:12:25;22.50;99.90
22321;DHT22;11328;53.928;18.522;2022-08-01T07:14:52;22.60;99.90
22321;DHT22;11328;53.928;18.522;2022-08-01T07:17:19;22.90;99.90
22321;DHT22;11328;53.928;18.522;2022-08-01T07:19:47;23.20;99.90
22321;DHT22;11328;53.928;18.522;2022-08-01T07:22:14;23.60;99.90
22321;DHT22;11328;53.928;18.522;2022-08-01T07:24:49;24.00;99.90
22321;DHT22;11328;53.928;18.522;2022-08-01T07:27:20;24.30;99.90
22321;DHT22;11328;53.928;18.522;2022-08-01T07:29:51;24.40;99.90
22321;DHT22;11328;53.928;18.522;2022-08-01T07:32:19;24.40;99.90
22321;DHT22;11328;53.928;18.522;2022-08-01T07:34:46;24.40;97.40
22321;DHT22;11328;53.928;18.522;2022-08-01T07:37:13;24.40;95.90
22321;DHT22;11328;53.928;18.522;2022-08-01T07:39:40;24.50;96.70
22321;DHT22;11328;53.928;18.522;2022-08-01T07:42:08;24.60;96.20
22321;DHT22;11328;53.928;18.522;2022-08-01T07:44:36;24.70;96.20
22321;DHT22;11328;53.928;18.522;2022-08-01T07:47:04;24.80;95.80
22321;DHT22;11328;53.928;18.522;2022-08-01T07:49:34;24.80;96.40
22321;DHT22;11328;53.928;18.522;2022-08-01T07:52:06;24.90;95.10
22321;DHT22;11328;53.928;18.522;2022-08-01T07:54:34;25.00;96.50
22321;DHT22;11328;53.928;18.522;2022-08-01T07:57:01;25.20;95.90
22321;DHT22;11328;53.928;18.522;2022-08-01T07:59:29;25.30;95.80
22321;DHT22;11328;53.928;18.522;2022-08-01T08:01:56;25.30;95.60
22321;DHT22;11328;53.928;18.522;2022-08-01T08:04:24;25.50;95.70
22321;DHT22;11328;53.928;18.522;2022-08-01T08:06:52;25.60;95.70
22321;DHT22;11328;53.928;18.522;2022-08-01T08:09:20;25.60;95.80
22321;DHT22;11328;53.928;18.522;2022-08-01T08:11:47;25.70;95.60
22321;DHT22;11328;53.928;18.522;2022-08-01T08:14:16;25.80;95.80
22321;DHT22;11328;53.928;18.522;2022-08-01T08:16:44;25.70;95.40
22321;DHT22;11328;53.928;18.522;2022-08-01T08:19:12;25.60;94.50
22321;DHT22;11328;53.928;18.522;2022-08-01T08:21:40;25.70;95.50
22321;DHT22;11328;53.928;18.522;2022-08-01T08:24:08;26.10;95.40
22321;DHT22;11328;53.928;18.522;2022-08-01T08:26:57;26.20;94.00
22321;DHT22;11328;53.928;18.522;2022-08-01T08:29:26;25.70;94.00
22321;DHT22;11328;53.928;18.522;2022-08-01T08:31:57;25.60;95.30
22321;DHT22;11328;53.928;18.522;2022-08-01T08:34:26;25.90;94.70
22321;DHT22;11328;53.928;18.522;2022-08-01T08:36:55;26.30;94.50
22321;DHT22;11328;53.928;18.522;2022-08-01T08:39:25;26.80;94.70
22321;DHT22;11328;53.928;18.522;2022-08-01T08:41:52;27.10;93.80
22321;DHT22;11328;53.928;18.522;2022-08-01T08:44:19;27.40;93.60
22321;DHT22;11328;53.928;18.522;2022-08-01T08:46:50;27.60;93.00
22321;DHT22;11328;53.928;18.522;2022-08-01T08:49:25;27.90;92.60
22321;DHT22;11328;53.928;18.522;2022-08-01T08:52:03;28.10;91.50
22321;DHT22;11328;53.928;18.522;2022-08-01T08:54:36;28.10;91.70
22321;DHT22;11328;53.928;18.522;2022-08-01T08:57:07;28.20;91.60
22321;DHT22;11328;53.928;18.522;2022-08-01T08:59:34;28.50;91.70
22321;DHT22;11328;53.928;18.522;2022-08-01T09:02:01;28.60;90.60
22321;DHT22;11328;53.928;18.522;2022-08-01T09:04:33;28.40;90.80
22321;DHT22;11328;53.928;18.522;2022-08-01T09:07:04;28.40;91.10
22321;DHT22;11328;53.928;18.522;2022-08-01T09:09:33;28.60;90.90
22321;DHT22;11328;53.928;18.522;2022-08-01T09:12:06;28.80;90.60
22321;DHT22;11328;53.928;18.522;2022-08-01T09:14:44;28.80;90.60
22321;DHT22;11328;53.928;18.522;2022-08-01T09:17:12;29.10;89.50
22321;DHT22;11328;53.928;18.522;2022-08-01T09:19:45;29.40;88.90
22321;DHT22;11328;53.928;18.522;2022-08-01T09:22:17;29.50;86.90
22321;DHT22;11328;53.928;18.522;2022-08-01T09:25:07;29.60;89.40
22321;DHT22;11328;53.928;18.522;2022-08-01T09:27:37;29.40;87.20
22321;DHT22;11328;53.928;18.522;2022-08-01T09:30:16;29.00;88.80
22321;DHT22;11328;53.928;18.522;2022-08-01T09:40:51;28.60;87.70
22321;DHT22;11328;53.928;18.522;2022-08-01T09:43:26;28.60;86.50
22321;DHT22;11328;53.928;18.522;2022-08-01T09:45:55;28.50;89.30
22321;DHT22;11328;53.928;18.522;2022-08-01T09:48:24;28.40;89.10
22321;DHT22;11328;53.928;18.522;2022-08-01T09:50:54;28.40;87.40
22321;DHT22;11328;53.928;18.522;2022-08-01T09:53:44;28.50;87.70
22321;DHT22;11328;53.928;18.522;2022-08-01T09:56:19;28.40;87.50
22321;DHT22;11328;53.928;18.522;2022-08-01T09:58:56;28.50;87.20
22321;DHT22;11328;53.928;18.522;2022-08-01T10:01:29;28.70;88.00
22321;DHT22;11328;53.928;18.522;2022-08-01T10:04:20;28.90;84.60
22321;DHT22;11328;53.928;18.522;2022-08-01T10:06:50;29.00;84.80
22321;DHT22;11328;53.928;18.522;2022-08-01T10:09:31;28.70;86.70
22321;DHT22;11328;53.928;18.522;2022-08-01T10:12:07;28.60;88.40
22321;DHT22;11328;53.928;18.522;2022-08-01T10:14:45;28.50;88.50
22321;DHT22;11328;53.928;18.522;2022-08-01T10:17:18;28.20;88.50
22321;DHT22;11328;53.928;18.522;2022-08-01T10:19:48;28.50;86.90
22321;DHT22;11328;53.928;18.522;2022-08-01T10:22:18;28.70;87.70
22321;DHT22;11328;53.928;18.522;2022-08-01T10:24:55;29.10;87.00
22321;DHT22;11328;53.928;18.522;2022-08-01T10:27:24;29.00;86.20
22321;DHT22;11328;53.928;18.522;2022-08-01T10:30:06;29.30;87.70
22321;DHT22;11328;53.928;18.522;2022-08-01T10:32:50;29.60;87.10
22321;DHT22;11328;53.928;18.522;2022-08-01T10:35:21;29.90;87.80
22321;DHT22;11328;53.928;18.522;2022-08-01T10:38:09;29.80;84.40
22321;DHT22;11328;53.928;18.522;2022-08-01T10:40:41;29.90;86.00
22321;DHT22;11328;53.928;18.522;2022-08-01T10:43:10;29.70;86.10
22321;DHT22;11328;53.928;18.522;2022-08-01T10:45:39;29.80;84.20
22321;DHT22;11328;53.928;18.522;2022-08-01T10:48:14;29.70;83.80
22321;DHT22;11328;53.928;18.522;2022-08-01T10:50:49;29.60;84.60
22321;DHT22;11328;53.928;18.522;2022-08-01T10:53:23;29.80;83.40
22321;DHT22;11328;53.928;18.522;2022-08-01T10:56:08;29.70;82.60
22321;DHT22;11328;53.928;18.522;2022-08-01T10:58:42;29.50;84.10
22321;DHT22;11328;53.928;18.522;2022-08-01T11:01:28;29.80;84.40
22321;DHT22;11328;53.928;18.522;2022-08-01T11:04:04;29.70;83.80
22321;DHT22;11328;53.928;18.522;2022-08-01T11:06:53;29.50;84.40
22321;DHT22;11328;53.928;18.522;2022-08-01T11:09:43;29.80;84.10
22321;DHT22;11328;53.928;18.522;2022-08-01T11:12:19;29.70;83.30
22321;DHT22;11328;53.928;18.522;2022-08-01T11:20:23;29.00;85.00
22321;DHT22;11328;53.928;18.522;2022-08-01T11:28:27;28.90;84.00
22321;DHT22;11328;53.928;18.522;2022-08-01T11:38:45;28.90;84.40
22321;DHT22;11328;53.928;18.522;2022-08-01T11:41:40;29.30;83.90
22321;DHT22;11328;53.928;18.522;2022-08-01T11:44:21;29.70;82.00
22321;DHT22;11328;53.928;18.522;2022-08-01T11:46:59;30.00;81.60
22321;DHT22;11328;53.928;18.522;2022-08-01T11:49:45;30.30;81.50
22321;DHT22;11328;53.928;18.522;2022-08-01T11:57:25;30.70;79.30
22321;DHT22;11328;53.928;18.522;2022-08-01T12:00:12;30.40;80.30
22321;DHT22;11328;53.928;18.522;2022-08-01T12:02:43;30.20;82.30
22321;DHT22;11328;53.928;18.522;2022-08-01T12:05:16;30.20;82.10
22321;DHT22;11328;53.928;18.522;2022-08-01T12:07:53;30.00;82.80
22321;DHT22;11328;53.928;18.522;2022-08-01T12:10:33;30.00;82.00
22321;DHT22;11328;53.928;18.522;2022-08-01T12:13:15;29.70;81.00
22321;DHT22;11328;53.928;18.522;2022-08-01T12:15:44;29.70;82.70
22321;DHT22;11328;53.928;18.522;2022-08-01T12:18:13;29.90;82.50
22321;DHT22;11328;53.928;18.522;2022-08-01T12:20:43;29.70;81.50
22321;DHT22;11328;53.928;18.522;2022-08-01T12:23:27;29.60;81.90
22321;DHT22;11328;53.928;18.522;2022-08-01T12:25:54;29.40;81.20
22321;DHT22;11328;53.928;18.522;2022-08-01T12:28:22;29.10;81.10
22321;DHT22;11328;53.928;18.522;2022-08-01T12:30:49;28.90;83.40
22321;DHT22;11328;53.928;18.522;2022-08-01T12:33:18;28.80;82.00
22321;DHT22;11328;53.928;18.522;2022-08-01T12:35:47;28.50;82.90
22321;DHT22;11328;53.928;18.522;2022-08-01T12:38:19;28.50;81.80
22321;DHT22;11328;53.928;18.522;2022-08-01T12:40:51;28.50;84.10
22321;DHT22;11328;53.928;18.522;2022-08-01T12:43:22;28.70;83.90
22321;DHT22;11328;53.928;18.522;2022-08-01T12:45:56;28.40;85.50
22321;DHT22;11328;53.928;18.522;2022-08-01T12:48:26;28.40;86.80
22321;DHT22;11328;53.928;18.522;2022-08-01T12:50:54;28.50;86.90
22321;DHT22;11328;53.928;18.522;2022-08-01T12:53:25;28.60;87.60
22321;DHT22;11328;53.928;18.522;2022-08-01T12:56:07;27.90;87.70
22321;DHT22;11328;53.928;18.522;2022-08-01T12:58:36;28.00;89.60
22321;DHT22;11328;53.928;18.522;2022-08-01T13:01:11;28.10;88.70
22321;DHT22;11328;53.928;18.522;2022-08-01T13:03:40;28.10;90.00
22321;DHT22;11328;53.928;18.522;2022-08-01T13:06:12;28.00;90.30
22321;DHT22;11328;53.928;18.522;2022-08-01T13:08:42;28.20;90.00
22321;DHT22;11328;53.928;18.522;2022-08-01T13:11:14;28.30;90.10
22321;DHT22;11328;53.928;18.522;2022-08-01T13:13:49;28.20;90.00
22321;DHT22;11328;53.928;18.522;2022-08-01T13:16:19;28.40;90.00
22321;DHT22;11328;53.928;18.522;2022-08-01T13:19:04;28.50;90.30
22321;DHT22;11328;53.928;18.522;2022-08-01T13:21:33;28.50;90.70
22321;DHT22;11328;53.928;18.522;2022-08-01T13:24:29;28.30;89.80
22321;DHT22;11328;53.928;18.522;2022-08-01T13:26:58;28.40;90.10
22321;DHT22;11328;53.928;18.522;2022-08-01T13:29:38;28.50;88.30
22321;DHT22;11328;53.928;18.522;2022-08-01T13:35:07;28.20;87.00
22321;DHT22;11328;53.928;18.522;2022-08-01T13:37:36;28.20;88.60
22321;DHT22;11328;53.928;18.522;2022-08-01T13:40:06;28.20;88.50
22321;DHT22;11328;53.928;18.522;2022-08-01T13:42:34;28.30;89.30
22321;DHT22;11328;53.928;18.522;2022-08-01T13:45:05;28.40;88.10
22321;DHT22;11328;53.928;18.522;2022-08-01T13:47:41;28.50;89.20
22321;DHT22;11328;53.928;18.522;2022-08-01T13:50:29;28.30;86.90
22321;DHT22;11328;53.928;18.522;2022-08-01T13:52:57;28.10;86.40
22321;DHT22;11328;53.928;18.522;2022-08-01T13:55:24;28.10;86.30
22321;DHT22;11328;53.928;18.522;2022-08-01T13:57:51;28.10;86.90
22321;DHT22;11328;53.928;18.522;2022-08-01T14:00:18;28.20;85.80
22321;DHT22;11328;53.928;18.522;2022-08-01T14:02:45;28.10;86.10
22321;DHT22;11328;53.928;18.522;2022-08-01T14:05:12;28.10;87.70
22321;DHT22;11328;53.928;18.522;2022-08-01T14:07:39;28.30;86.80
22321;DHT22;11328;53.928;18.522;2022-08-01T14:10:07;28.50;87.30
22321;DHT22;11328;53.928;18.522;2022-08-01T14:12:46;28.20;87.10
22321;DHT22;11328;53.928;18.522;2022-08-01T14:15:14;28.20;88.30
22321;DHT22;11328;53.928;18.522;2022-08-01T14:18:02;28.20;87.60
22321;DHT22;11328;53.928;18.522;2022-08-01T14:20:31;28.00;86.50
22321;DHT22;11328;53.928;18.522;2022-08-01T14:22:59;27.90;86.80
22321;DHT22;11328;53.928;18.522;2022-08-01T14:25:26;27.60;86.90
22321;DHT22;11328;53.928;18.522;2022-08-01T14:28:14;27.70;87.40
22321;DHT22;11328;53.928;18.522;2022-08-01T14:30:42;27.60;86.90
22321;DHT22;11328;53.928;18.522;2022-08-01T14:33:10;27.70;86.60
22321;DHT22;11328;53.928;18.522;2022-08-01T14:35:40;27.70;86.40
22321;DHT22;11328;53.928;18.522;2022-08-01T14:38:27;27.80;86.40
22321;DHT22;11328;53.928;18.522;2022-08-01T14:40:59;27.90;85.80
22321;DHT22;11328;53.928;18.522;2022-08-01T14:43:27;27.80;85.80
22321;DHT22;11328;53.928;18.522;2022-08-01T14:46:00;27.80;87.10
22321;DHT22;11328;53.928;18.522;2022-08-01T14:48:27;27.90;86.50
22321;DHT22;11328;53.928;18.522;2022-08-01T14:50:56;27.90;86.80
22321;DHT22;11328;53.928;18.522;2022-08-01T14:53:25;27.80;87.40
22321;DHT22;11328;53.928;18.522;2022-08-01T14:55:52;27.80;86.00
22321;DHT22;11328;53.928;18.522;2022-08-01T14:58:19;27.50;85.60
22321;DHT22;11328;53.928;18.522;2022-08-01T15:00:47;27.40;85.50
22321;DHT22;11328;53.928;18.522;2022-08-01T15:03:14;27.50;87.00
22321;DHT22;11328;53.928;18.522;2022-08-01T15:05:42;27.40;87.30
22321;DHT22;11328;53.928;18.522;2022-08-01T15:08:09;27.30;85.60
22321;DHT22;11328;53.928;18.522;2022-08-01T15:10:37;27.10;85.90
22321;DHT22;11328;53.928;18.522;2022-08-01T15:13:04;27.20;86.30
22321;DHT22;11328;53.928;18.522;2022-08-01T15:15:31;27.20;86.70
22321;DHT22;11328;53.928;18.522;2022-08-01T15:17:58;27.20;87.10
22321;DHT22;11328;53.928;18.522;2022-08-01T15:20:26;27.20;86.30
22321;DHT22;11328;53.928;18.522;2022-08-01T15:22:55;27.20;86.90
22321;DHT22;11328;53.928;18.522;2022-08-01T15:25:23;27.20;87.00
22321;DHT22;11328;53.928;18.522;2022-08-01T15:27:50;27.30;87.00
22321;DHT22;11328;53.928;18.522;2022-08-01T15:30:17;27.30;86.80
22321;DHT22;11328;53.928;18.522;2022-08-01T15:32:53;27.40;87.70
22321;DHT22;11328;53.928;18.522;2022-08-01T15:35:20;27.40;87.30
22321;DHT22;11328;53.928;18.522;2022-08-01T15:37:47;27.30;87.50
22321;DHT22;11328;53.928;18.522;2022-08-01T15:40:14;27.20;87.10
22321;DHT22;11328;53.928;18.522;2022-08-01T15:42:41;27.30;87.50
22321;DHT22;11328;53.928;18.522;2022-08-01T15:45:08;27.30;88.20
22321;DHT22;11328;53.928;18.522;2022-08-01T15:47:51;27.40;88.30
22321;DHT22;11328;53.928;18.522;2022-08-01T15:50:18;27.40;88.50
22321;DHT22;11328;53.928;18.522;2022-08-01T15:52:45;27.50;88.70
22321;DHT22;11328;53.928;18.522;2022-08-01T15:55:12;27.40;88.50
22321;DHT22;11328;53.928;18.522;2022-08-01T15:57:39;27.40;88.60
22321;DHT22;11328;53.928;18.522;2022-08-01T16:00:07;27.50;88.10
22321;DHT22;11328;53.928;18.522;2022-08-01T16:02:34;27.40;88.70
22321;DHT22;11328;53.928;18.522;2022-08-01T16:05:01;27.40;89.20
22321;DHT22;11328;53.928;18.522;2022-08-01T16:07:28;27.50;90.10
22321;DHT22;11328;53.928;18.522;2022-08-01T16:09:55;27.50;88.60
22321;DHT22;11328;53.928;18.522;2022-08-01T16:12:22;27.40;89.20
22321;DHT22;11328;53.928;18.522;2022-08-01T16:14:49;27.50;89.80
22321;DHT22;11328;53.928;18.522;2022-08-01T16:17:16;27.50;89.90
22321;DHT22;11328;53.928;18.522;2022-08-01T16:19:44;27.30;90.00
22321;DHT22;11328;53.928;18.522;2022-08-01T16:22:11;27.20;90.40
22321;DHT22;11328;53.928;18.522;2022-08-01T16:24:38;27.20;90.70